Time;durP1;ratioP1;P1;durP2;ratioP2;P2;SDS_P1;SDS_P2;PMS_P1;PMS_P2;Temp;Humidity;BMP_temperature;BMP_pressure;BME280_temperature;BME280_humidity;BME280_pressure;Samples;Min_cycle;Max_cycle;Signal;HPM_P1;HPM_P2
2021/05/30 00:04:18;;;;;;;5.10;2.22;;;;;;;;;;10279470;28;20084;-57
2021/05/30 00:09:17;;;;;;;3.95;1.80;;;;;;;;;;10280429;28;20045;-58
2021/05/30 00:14:15;;;;;;;7.47;2.10;;;;;;;;;;10280106;28;20044;-53
2021/05/30 00:19:13;;;;;;;4.68;2.35;;;;;;;;;;10280233;28;20497;-57
2021/05/30 00:24:11;;;;;;;2.20;2.00;;;;;;;;;;10279208;28;20103;-54
2021/05/30 00:29:10;;;;;;;2.40;2.15;;;;;;;;;;10278643;28;20041;-57
2021/05/30 00:34:08;;;;;;;3.30;2.17;;;;;;;;;;10279343;28;20509;-58
2021/05/30 00:39:06;;;;;;;4.60;2.08;;;;;;;;;;10278315;28;20049;-56
2021/05/30 00:44:18;;;;;;;3.03;2.05;;;;;;;;;;10279050;28;20087;-56
2021/05/30 00:49:17;;;;;;;4.20;2.10;;;;;;;;;;10278859;28;20048;-56
2021/05/30 00:54:15;;;;;;;3.65;2.00;;;;;;;;;;10276966;28;20056;-57
2021/05/30 00:59:13;;;;;;;5.53;2.00;;;;;;;;;;10277312;28;20528;-56
2021/05/30 01:04:11;;;;;;;2.67;1.90;;;;;;;;;;10277033;28;20095;-57
2021/05/30 01:09:10;;;;;;;3.45;2.25;;;;;;;;;;10278170;28;20048;-57
2021/05/30 01:14:10;;;;;;;2.97;1.98;;;;;;;;;;10277075;28;20048;-58
2021/05/30 01:19:09;;;;;;;5.03;2.35;;;;;;;;;;10277907;28;20041;-57
2021/05/30 01:24:08;;;;;;;5.85;2.03;;;;;;;;;;10277584;28;20497;-57
2021/05/30 01:29:06;;;;;;;4.10;2.53;;;;;;;;;;10276908;28;20041;-57
2021/05/30 01:34:04;;;;;;;3.10;1.92;;;;;;;;;;10276997;28;20084;-56
2021/05/30 01:39:01;;;;;;;8.18;2.65;;;;;;;;;;10276935;28;20049;-56
2021/05/30 01:44:00;;;;;;;6.18;2.70;;;;;;;;;;10276807;28;20095;-55
2021/05/30 01:48:58;;;;;;;6.75;2.25;;;;;;;;;;10276592;28;20076;-55
2021/05/30 01:54:04;;;;;;;3.40;2.03;;;;;;;;;;10276445;28;20505;-55
2021/05/30 01:59:04;;;;;;;3.35;2.17;;;;;;;;;;10276388;28;20242;-52
2021/05/30 02:04:02;;;;;;;9.52;2.10;;;;;;;;;;10274617;28;20109;-55
2021/05/30 02:09:01;;;;;;;2.03;1.75;;;;;;;;;;10276243;28;20045;-56
2021/05/30 02:14:00;;;;;;;2.78;2.10;;;;;;;;;;10276165;28;20045;-56
2021/05/30 02:18:59;;;;;;;4.30;2.10;;;;;;;;;;10283700;28;20045;-56
2021/05/30 02:23:59;;;;;;;5.28;2.45;;;;;;;;;;10284286;28;20073;-55
2021/05/30 02:28:57;;;;;;;2.35;2.10;;;;;;;;;;10284127;28;20524;-56
2021/05/30 02:33:54;;;;;;;2.13;1.90;;;;;;;;;;10283791;28;20068;-56
2021/05/30 02:38:53;;;;;;;4.10;2.70;;;;;;;;;;10283363;28;20075;-55
2021/05/30 02:43:51;;;;;;;3.10;2.08;;;;;;;;;;10283273;28;20083;-55
2021/05/30 02:48:49;;;;;;;5.53;2.20;;;;;;;;;;10283276;28;20048;-56
2021/05/30 02:53:46;;;;;;;3.28;2.00;;;;;;;;;;10280398;28;20044;-55
2021/05/30 02:58:45;;;;;;;3.75;2.13;;;;;;;;;;10281574;28;20037;-56
2021/05/30 03:03:43;;;;;;;13.77;2.63;;;;;;;;;;10281416;28;20099;-55
2021/05/30 03:08:41;;;;;;;4.07;2.38;;;;;;;;;;10282386;28;20084;-55
2021/05/30 03:13:38;;;;;;;3.50;2.20;;;;;;;;;;10282231;28;20041;-56
2021/05/30 03:18:37;;;;;;;4.63;2.75;;;;;;;;;;10281930;28;20053;-55
2021/05/30 03:23:35;;;;;;;3.28;2.30;;;;;;;;;;10281753;28;20510;-55
2021/05/30 03:28:33;;;;;;;3.30;2.28;;;;;;;;;;10281228;28;20394;-57
2021/05/30 03:33:30;;;;;;;4.50;2.15;;;;;;;;;;10281558;28;20045;-54
2021/05/30 03:38:31;;;;;;;5.35;2.20;;;;;;;;;;10281389;28;20414;-54
2021/05/30 03:43:29;;;;;;;13.85;2.20;;;;;;;;;;10280324;28;20128;-56
2021/05/30 03:48:27;;;;;;;3.90;2.17;;;;;;;;;;10281214;28;20506;-55
2021/05/30 03:53:25;;;;;;;2.10;1.92;;;;;;;;;;10280586;28;20049;-55
2021/05/30 03:58:24;;;;;;;2.13;1.92;;;;;;;;;;10279642;28;20084;-56
2021/05/30 04:03:22;;;;;;;4.22;2.08;;;;;;;;;;10279964;28;20090;-56
2021/05/30 04:08:20;;;;;;;2.10;1.90;;;;;;;;;;10280296;28;20057;-55
2021/05/30 04:13:18;;;;;;;2.78;2.13;;;;;;;;;;10279014;28;20040;-54
2021/05/30 04:18:20;;;;;;;7.85;2.53;;;;;;;;;;10274930;28;20072;-57
2021/05/30 04:23:18;;;;;;;9.45;2.28;;;;;;;;;;10277841;28;20084;-55
2021/05/30 04:28:18;;;;;;;6.57;2.67;;;;;;;;;;10277460;28;20049;-56
2021/05/30 04:33:16;;;;;;;3.63;2.05;;;;;;;;;;10271929;28;20064;-55
2021/05/30 04:38:14;;;;;;;2.65;1.95;;;;;;;;;;10276733;28;20116;-56
2021/05/30 04:43:12;;;;;;;2.25;1.88;;;;;;;;;;10277094;28;20489;-58
2021/05/30 04:48:10;;;;;;;4.07;2.60;;;;;;;;;;10277990;28;20457;-54
2021/05/30 04:53:09;;;;;;;2.17;2.00;;;;;;;;;;10276103;28;20060;-55
2021/05/30 04:58:06;;;;;;;7.28;2.78;;;;;;;;;;10273683;28;20072;-54
2021/05/30 05:03:04;;;;;;;7.57;4.03;;;;;;;;;;10274963;28;20541;-57
2021/05/30 05:08:02;;;;;;;4.38;2.95;;;;;;;;;;10278040;28;20489;-53
2021/05/30 05:13:01;;;;;;;9.43;2.47;;;;;;;;;;10276201;28;20045;-54
2021/05/30 05:18:09;;;;;;;12.73;8.70;;;;;;;;;;10276143;28;20486;-55
2021/05/30 05:23:07;;;;;;;9.80;6.72;;;;;;;;;;10259186;28;20083;-55
2021/05/30 05:28:06;;;;;;;13.40;7.50;;;;;;;;;;10277173;28;20047;-55
2021/05/30 05:33:04;;;;;;;12.68;8.73;;;;;;;;;;10274741;28;20064;-53
2021/05/30 05:38:02;;;;;;;6.63;3.83;;;;;;;;;;10250933;28;20077;-54
2021/05/30 05:43:00;;;;;;;24.63;20.50;;;;;;;;;;10265369;28;20077;-53
2021/05/30 05:48:00;;;;;;;3.10;2.42;;;;;;;;;;10273805;28;20400;-53
2021/05/30 05:52:58;;;;;;;4.35;2.72;;;;;;;;;;10271538;28;20085;-55
2021/05/30 05:57:56;;;;;;;7.45;3.03;;;;;;;;;;10270814;28;20497;-56
2021/05/30 06:02:54;;;;;;;13.57;6.30;;;;;;;;;;10272820;28;20509;-55
2021/05/30 06:07:53;;;;;;;4.38;3.33;;;;;;;;;;10272705;28;20053;-56
2021/05/30 06:12:51;;;;;;;7.70;4.13;;;;;;;;;;10276236;28;20048;-54
2021/05/30 06:17:53;;;;;;;4.78;2.38;;;;;;;;;;10275823;28;20052;-56
2021/05/30 06:22:51;;;;;;;4.28;2.40;;;;;;;;;;10275835;28;20056;-53
2021/05/30 06:27:49;;;;;;;8.52;2.42;;;;;;;;;;10275563;28;20045;-54
2021/05/30 06:32:47;;;;;;;6.57;5.13;;;;;;;;;;10275540;28;20045;-55
2021/05/30 06:37:45;;;;;;;5.30;4.18;;;;;;;;;;10275337;28;20060;-51
2021/05/30 06:42:44;;;;;;;4.38;3.78;;;;;;;;;;10274698;28;20075;-55
2021/05/30 06:47:42;;;;;;;10.98;3.85;;;;;;;;;;10275412;28;20528;-55
2021/05/30 06:52:41;;;;;;;9.73;5.70;;;;;;;;;;10275413;28;20041;-56
2021/05/30 06:57:39;;;;;;;10.27;5.32;;;;;;;;;;10275040;28;20447;-51
2021/05/30 07:02:37;;;;;;;9.73;6.75;;;;;;;;;;10277583;28;20071;-53
2021/05/30 07:07:36;;;;;;;8.52;3.70;;;;;;;;;;10282304;28;20076;-56
2021/05/30 07:12:34;;;;;;;9.00;5.10;;;;;;;;;;10282193;28;20060;-52
2021/05/30 07:17:32;;;;;;;3.45;2.72;;;;;;;;;;10281373;28;20044;-52
2021/05/30 07:22:30;;;;;;;6.32;4.30;;;;;;;;;;10281973;28;20041;-54
2021/05/30 07:27:29;;;;;;;10.38;5.45;;;;;;;;;;10281678;28;20080;-53
2021/05/30 07:32:27;;;;;;;6.55;3.00;;;;;;;;;;10281155;28;20474;-52
2021/05/30 07:37:25;;;;;;;9.63;6.32;;;;;;;;;;10280983;28;20426;-53
2021/05/30 07:42:23;;;;;;;7.40;2.75;;;;;;;;;;10281278;28;20469;-50
2021/05/30 07:47:23;;;;;;;8.25;4.85;;;;;;;;;;10281023;28;20068;-53
2021/05/30 07:52:21;;;;;;;3.08;2.58;;;;;;;;;;10280681;28;20084;-55
2021/05/30 07:57:19;;;;;;;7.18;5.70;;;;;;;;;;10279633;28;20510;-55
2021/05/30 08:02:18;;;;;;;22.20;15.07;;;;;;;;;;10279825;28;20087;-57
2021/05/30 08:07:17;;;;;;;9.40;6.40;;;;;;;;;;10280060;28;20083;-55
2021/05/30 08:12:15;;;;;;;20.83;17.58;;;;;;;;;;10279155;28;20049;-56
2021/05/30 08:17:13;;;;;;;8.75;3.30;;;;;;;;;;10279489;28;20465;-57
2021/05/30 08:22:11;;;;;;;2.70;2.50;;;;;;;;;;10279384;28;20053;-54
2021/05/30 08:27:10;;;;;;;2.92;2.63;;;;;;;;;;10277605;28;20545;-52
2021/05/30 08:32:08;;;;;;;4.53;3.17;;;;;;;;;;10279094;28;20052;-52
2021/05/30 08:37:06;;;;;;;6.50;4.75;;;;;;;;;;10278563;28;20052;-53
2021/05/30 08:42:04;;;;;;;7.85;6.40;;;;;;;;;;10278373;28;20049;-54
2021/05/30 08:47:03;;;;;;;5.60;4.90;;;;;;;;;;10277674;28;20084;-55
2021/05/30 08:52:01;;;;;;;10.98;8.93;;;;;;;;;;10277881;28;20045;-53
2021/05/30 08:56:59;;;;;;;7.13;4.15;;;;;;;;;;10276717;28;20045;-56
2021/05/30 09:01:57;;;;;;;8.68;5.45;;;;;;;;;;10276865;28;20067;-55
2021/05/30 09:06:56;;;;;;;4.80;3.78;;;;;;;;;;10277395;28;20091;-53
2021/05/30 09:11:54;;;;;;;3.40;2.78;;;;;;;;;;10273652;28;20080;-50
2021/05/30 09:16:57;;;;;;;7.00;3.40;;;;;;;;;;10277760;28;20085;-52
2021/05/30 09:22:13;;;;;;;4.68;3.45;;;;;;;;;;10276854;28;20453;-53
2021/05/30 09:27:11;;;;;;;6.03;4.13;;;;;;;;;;10276727;28;20131;-54
2021/05/30 09:32:09;;;;;;;8.70;3.90;;;;;;;;;;10276994;28;20522;-54
2021/05/30 09:37:09;;;;;;;8.88;3.97;;;;;;;;;;10276812;28;20045;-52
2021/05/30 09:42:22;;;;;;;6.05;5.45;;;;;;;;;;10276432;28;20053;-54
2021/05/30 09:47:32;;;;;;;6.47;3.75;;;;;;;;;;10275418;28;20075;-53
2021/05/30 09:52:37;;;;;;;8.07;2.97;;;;;;;;;;10275922;28;20524;-56
2021/05/30 09:57:35;;;;;;;5.00;3.00;;;;;;;;;;10276027;28;20040;-58
2021/05/30 10:02:33;;;;;;;5.93;3.95;;;;;;;;;;10275642;28;20096;-56
2021/05/30 10:07:32;;;;;;;4.93;3.78;;;;;;;;;;10275759;28;20083;-56
2021/05/30 10:12:30;;;;;;;7.32;3.83;;;;;;;;;;10275487;28;20049;-51
2021/05/30 10:17:33;;;;;;;9.30;7.90;;;;;;;;;;10263666;28;20522;-57
2021/05/30 10:22:31;;;;;;;5.88;3.50;;;;;;;;;;10241754;28;20509;-54
2021/05/30 10:27:30;;;;;;;4.43;3.47;;;;;;;;;;10235430;28;20073;-54
2021/05/30 10:32:28;;;;;;;9.38;4.75;;;;;;;;;;10234409;28;20104;-57
2021/05/30 10:37:26;;;;;;;4.05;2.58;;;;;;;;;;10236749;28;20057;-56
2021/05/30 10:42:25;;;;;;;8.82;2.92;;;;;;;;;;10258218;28;20064;-55
2021/05/30 10:47:42;;;;;;;4.88;4.03;;;;;;;;;;10278892;28;20084;-55
2021/05/30 10:52:42;;;;;;;18.17;6.18;;;;;;;;;;10282945;28;20099;-55
2021/05/30 10:57:41;;;;;;;7.32;5.78;;;;;;;;;;10282674;28;20045;-54
2021/05/30 11:03:05;;;;;;;5.38;4.15;;;;;;;;;;10282262;28;20071;-55
2021/05/30 11:08:04;;;;;;;8.13;2.80;;;;;;;;;;10281072;28;20068;-56
2021/05/30 11:13:03;;;;;;;4.20;3.53;;;;;;;;;;10270210;28;20828;-55
2021/05/30 11:18:01;;;;;;;6.32;4.22;;;;;;;;;;10259875;28;20048;-56
2021/05/30 11:23:00;;;;;;;4.88;3.13;;;;;;;;;;10257660;28;20045;-53
2021/05/30 11:27:59;;;;;;;14.82;10.90;;;;;;;;;;10278583;28;20080;-56
2021/05/30 11:32:57;;;;;;;9.15;7.07;;;;;;;;;;10281604;28;20421;-57
2021/05/30 11:37:55;;;;;;;11.25;7.88;;;;;;;;;;10277572;28;20042;-55
2021/05/30 11:42:53;;;;;;;12.43;8.60;;;;;;;;;;10253320;28;20052;-55
2021/05/30 11:48:01;;;;;;;8.02;6.30;;;;;;;;;;10240072;28;20081;-55
2021/05/30 11:52:59;;;;;;;23.42;15.23;;;;;;;;;;10239637;28;20041;-56
2021/05/30 11:58:04;;;;;;;16.58;13.48;;;;;;;;;;10240150;28;20259;-52
2021/05/30 12:03:13;;;;;;;5.80;4.80;;;;;;;;;;10239072;28;20563;-56
2021/05/30 12:08:14;;;;;;;7.35;6.10;;;;;;;;;;10239844;28;20096;-55
2021/05/30 12:13:23;;;;;;;10.32;3.78;;;;;;;;;;10239619;28;20060;-56
2021/05/30 12:18:23;;;;;;;4.10;3.40;;;;;;;;;;10237610;28;20049;-56
2021/05/30 12:23:22;;;;;;;5.68;4.70;;;;;;;;;;10239065;28;20046;-54
2021/05/30 12:28:20;;;;;;;8.77;7.90;;;;;;;;;;10238989;28;20081;-56
2021/05/30 12:33:19;;;;;;;7.72;5.50;;;;;;;;;;10238653;28;20050;-56
2021/05/30 12:38:19;;;;;;;7.68;5.97;;;;;;;;;;10238029;28;20494;-57
2021/05/30 12:43:30;;;;;;;5.55;2.90;;;;;;;;;;10238281;28;20042;-56
2021/05/30 12:48:38;;;;;;;9.88;5.88;;;;;;;;;;10237695;28;20481;-55
2021/05/30 12:53:38;;;;;;;5.30;3.45;;;;;;;;;;10237282;28;20049;-55
2021/05/30 12:58:36;;;;;;;8.13;3.50;;;;;;;;;;10236790;28;20096;-55
2021/05/30 13:03:34;;;;;;;4.15;3.00;;;;;;;;;;10237273;28;20046;-56
2021/05/30 13:08:32;;;;;;;5.22;4.72;;;;;;;;;;10235925;28;20062;-54
2021/05/30 13:13:32;;;;;;;6.47;2.95;;;;;;;;;;10237045;28;20045;-54
2021/05/30 13:18:30;;;;;;;14.63;7.05;;;;;;;;;;10237172;28;20478;-55
2021/05/30 13:23:29;;;;;;;4.25;2.50;;;;;;;;;;10236751;28;20053;-55
2021/05/30 13:28:29;;;;;;;9.05;2.95;;;;;;;;;;10238033;28;20510;-55
2021/05/30 13:33:30;;;;;;;8.23;3.38;;;;;;;;;;10255321;28;20064;-55
2021/05/30 13:38:29;;;;;;;4.97;2.85;;;;;;;;;;10267925;28;20045;-55
2021/05/30 13:43:27;;;;;;;10.25;4.80;;;;;;;;;;10276788;28;20520;-52
2021/05/30 13:48:25;;;;;;;5.80;4.53;;;;;;;;;;10276008;28;20080;-54
2021/05/30 13:53:23;;;;;;;5.60;4.55;;;;;;;;;;10275434;28;20045;-54
2021/05/30 13:58:21;;;;;;;4.43;3.72;;;;;;;;;;10275777;28;20516;-56
2021/05/30 14:03:19;;;;;;;2.67;1.90;;;;;;;;;;10275866;28;20049;-56
2021/05/30 14:08:17;;;;;;;5.97;1.92;;;;;;;;;;10272856;28;20073;-51
2021/05/30 14:13:16;;;;;;;3.88;2.55;;;;;;;;;;10280426;28;20045;-52
2021/05/30 14:18:13;;;;;;;4.93;2.63;;;;;;;;;;10278398;28;20041;-55
2021/05/30 14:23:11;;;;;;;2.28;2.03;;;;;;;;;;10248352;28;20080;-54
2021/05/30 14:28:09;;;;;;;4.13;3.42;;;;;;;;;;10243674;28;20081;-55
2021/05/30 14:33:08;;;;;;;5.50;2.20;;;;;;;;;;10242982;28;20041;-56
2021/05/30 14:38:06;;;;;;;6.30;3.83;;;;;;;;;;10242601;28;20049;-56
2021/05/30 14:43:04;;;;;;;3.40;2.22;;;;;;;;;;10268317;28;20079;-57
2021/05/30 14:48:02;;;;;;;3.80;2.53;;;;;;;;;;10269956;28;20083;-57
2021/05/30 14:53:00;;;;;;;8.25;2.53;;;;;;;;;;10272881;28;20087;-60
2021/05/30 14:57:58;;;;;;;6.93;2.95;;;;;;;;;;10270930;28;20077;-57
2021/05/30 15:02:56;;;;;;;4.45;2.72;;;;;;;;;;10261495;28;20080;-58
2021/05/30 15:07:54;;;;;;;6.07;4.80;;;;;;;;;;10264388;28;20477;-55
2021/05/30 15:12:53;;;;;;;10.45;8.63;;;;;;;;;;10252313;28;20084;-55
2021/05/30 15:17:51;;;;;;;5.05;3.30;;;;;;;;;;10253770;28;20069;-58
2021/05/30 15:22:50;;;;;;;7.53;3.55;;;;;;;;;;10260424;28;20075;-57
2021/05/30 15:27:48;;;;;;;5.85;4.45;;;;;;;;;;10258239;28;20088;-59
2021/05/30 15:32:46;;;;;;;6.25;4.38;;;;;;;;;;10269393;28;20514;-57
2021/05/30 15:37:45;;;;;;;9.65;3.50;;;;;;;;;;10268068;28;20064;-61
2021/05/30 15:42:43;;;;;;;3.50;3.20;;;;;;;;;;10278204;28;20045;-60
2021/05/30 15:47:41;;;;;;;3.80;2.85;;;;;;;;;;10274985;28;20073;-61
2021/05/30 15:52:40;;;;;;;5.63;3.03;;;;;;;;;;10278372;28;20077;-60
2021/05/30 15:57:39;;;;;;;5.05;3.80;;;;;;;;;;10267965;28;20069;-60
2021/05/30 16:02:36;;;;;;;4.07;3.55;;;;;;;;;;10264150;28;20111;-60
2021/05/30 16:07:34;;;;;;;5.22;4.55;;;;;;;;;;10269336;28;20071;-59
2021/05/30 16:12:33;;;;;;;5.18;3.50;;;;;;;;;;10260580;28;20072;-59
2021/05/30 16:17:31;;;;;;;10.63;3.95;;;;;;;;;;10274932;28;20061;-59
2021/05/30 16:22:29;;;;;;;4.85;2.92;;;;;;;;;;10239059;28;20046;-60
2021/05/30 16:27:27;;;;;;;7.05;3.53;;;;;;;;;;10238140;28;20076;-60
2021/05/30 16:32:25;;;;;;;3.03;2.72;;;;;;;;;;10238593;28;20045;-59
2021/05/30 16:37:23;;;;;;;5.10;4.60;;;;;;;;;;10236850;28;20049;-61
2021/05/30 16:42:25;;;;;;;4.70;3.75;;;;;;;;;;10261366;28;20076;-59
2021/05/30 16:47:23;;;;;;;5.15;4.65;;;;;;;;;;10278446;28;20497;-59
2021/05/30 16:52:22;;;;;;;6.65;3.00;;;;;;;;;;10275202;28;20072;-59
2021/05/30 16:57:20;;;;;;;4.65;3.70;;;;;;;;;;10277568;28;20482;-60
2021/05/30 17:02:18;;;;;;;4.07;3.67;;;;;;;;;;10275559;28;20111;-60
2021/05/30 17:07:16;;;;;;;6.00;3.78;;;;;;;;;;10277009;28;20082;-60
2021/05/30 17:12:15;;;;;;;5.22;3.63;;;;;;;;;;10275187;28;20077;-60
2021/05/30 17:17:13;;;;;;;7.60;3.33;;;;;;;;;;10274972;28;20045;-60
2021/05/30 17:22:10;;;;;;;4.40;3.95;;;;;;;;;;10276617;28;20037;-60
2021/05/30 17:27:10;;;;;;;3.85;3.42;;;;;;;;;;10276780;28;20080;-60
2021/05/30 17:32:15;;;;;;;5.65;4.97;;;;;;;;;;10276409;28;20037;-60
2021/05/30 17:37:13;;;;;;;6.38;3.00;;;;;;;;;;10276228;28;20045;-60
2021/05/30 17:42:11;;;;;;;4.60;2.92;;;;;;;;;;10276061;28;20088;-59
2021/05/30 17:47:08;;;;;;;4.95;3.30;;;;;;;;;;10276226;28;20076;-59
2021/05/30 17:52:07;;;;;;;5.22;3.60;;;;;;;;;;10257518;28;20532;-59
2021/05/30 17:57:10;;;;;;;4.88;2.92;;;;;;;;;;10266768;28;20049;-60
2021/05/30 18:02:08;;;;;;;7.25;2.95;;;;;;;;;;10272049;28;20084;-59
2021/05/30 18:07:09;;;;;;;4.10;2.72;;;;;;;;;;10257771;28;20065;-59
2021/05/30 18:12:08;;;;;;;5.47;3.65;;;;;;;;;;10268153;28;20048;-60
2021/05/30 18:17:08;;;;;;;4.30;3.15;;;;;;;;;;10265981;28;20076;-60
2021/05/30 18:22:06;;;;;;;5.15;3.38;;;;;;;;;;10269247;28;20041;-59
2021/05/30 18:27:04;;;;;;;3.28;2.97;;;;;;;;;;10272072;28;20088;-59
2021/05/30 18:32:04;;;;;;;6.13;3.17;;;;;;;;;;10274847;28;20072;-60
2021/05/30 18:37:02;;;;;;;7.45;2.72;;;;;;;;;;10273278;28;20063;-60
2021/05/30 18:41:59;;;;;;;4.25;3.70;;;;;;;;;;10272173;28;20068;-60
2021/05/30 18:46:57;;;;;;;7.05;3.78;;;;;;;;;;10273031;28;20466;-60
2021/05/30 18:51:57;;;;;;;9.18;5.32;;;;;;;;;;10264923;28;20048;-60
2021/05/30 18:56:55;;;;;;;10.13;4.47;;;;;;;;;;10272716;28;20076;-59
2021/05/30 19:01:55;;;;;;;4.93;3.80;;;;;;;;;;10281092;28;20084;-59
2021/05/30 19:06:53;;;;;;;7.18;4.13;;;;;;;;;;10281593;28;20081;-60
2021/05/30 19:11:51;;;;;;;6.72;3.72;;;;;;;;;;10281740;28;20077;-61
2021/05/30 19:16:49;;;;;;;6.18;4.97;;;;;;;;;;10281525;28;20049;-59
2021/05/30 19:21:47;;;;;;;5.20;4.07;;;;;;;;;;10281346;28;20520;-60
2021/05/30 19:26:45;;;;;;;11.63;5.10;;;;;;;;;;10263781;28;20080;-60
2021/05/30 19:31:44;;;;;;;5.63;4.20;;;;;;;;;;10278483;28;20052;-59
2021/05/30 19:36:42;;;;;;;6.65;4.28;;;;;;;;;;10279043;28;20045;-60
2021/05/30 19:41:40;;;;;;;11.30;4.25;;;;;;;;;;10277063;28;20069;-60
2021/05/30 19:46:38;;;;;;;7.30;4.03;;;;;;;;;;10280636;28;20076;-60
2021/05/30 19:51:37;;;;;;;4.63;3.53;;;;;;;;;;10279803;28;20057;-59
2021/05/30 19:56:35;;;;;;;7.47;3.60;;;;;;;;;;10277876;28;20076;-60
2021/05/30 20:01:32;;;;;;;3.30;2.78;;;;;;;;;;10273422;28;20503;-59
2021/05/30 20:06:34;;;;;;;5.28;3.30;;;;;;;;;;10276328;28;20068;-61
2021/05/30 20:11:33;;;;;;;3.10;2.67;;;;;;;;;;10268302;28;20490;-59
2021/05/30 20:16:31;;;;;;;4.60;3.05;;;;;;;;;;10276866;28;20056;-59
2021/05/30 20:21:29;;;;;;;4.40;3.45;;;;;;;;;;10276600;28;20068;-59
2021/05/30 20:26:32;;;;;;;4.57;3.10;;;;;;;;;;10265131;28;20113;-59
2021/05/30 20:31:31;;;;;;;4.78;2.83;;;;;;;;;;10274506;28;20557;-59
2021/05/30 20:36:29;;;;;;;5.18;3.33;;;;;;;;;;10274902;28;20080;-59
2021/05/30 20:41:27;;;;;;;3.35;3.03;;;;;;;;;;10273277;28;20088;-60
2021/05/30 20:46:25;;;;;;;3.40;3.03;;;;;;;;;;10279073;28;20068;-60
2021/05/30 20:51:24;;;;;;;3.40;2.70;;;;;;;;;;10275842;28;20081;-59
2021/05/30 20:56:24;;;;;;;3.30;3.00;;;;;;;;;;10266833;28;20045;-60
2021/05/30 21:01:22;;;;;;;7.22;4.50;;;;;;;;;;10278278;28;20487;-60
2021/05/30 21:06:19;;;;;;;5.32;3.70;;;;;;;;;;10278193;28;20410;-60
2021/05/30 21:11:18;;;;;;;4.07;3.67;;;;;;;;;;10277902;28;20049;-59
2021/05/30 21:16:17;;;;;;;2.88;2.67;;;;;;;;;;10277850;28;20520;-59
2021/05/30 21:21:14;;;;;;;4.10;3.28;;;;;;;;;;10277382;28;20049;-59
2021/05/30 21:26:13;;;;;;;4.55;4.15;;;;;;;;;;10278019;28;20485;-59
2021/05/30 21:31:11;;;;;;;4.90;3.60;;;;;;;;;;10277290;28;20111;-58
2021/05/30 21:36:10;;;;;;;9.38;4.47;;;;;;;;;;10277283;28;20051;-59
2021/05/30 21:41:07;;;;;;;5.55;3.97;;;;;;;;;;10276916;28;20060;-60
2021/05/30 21:46:06;;;;;;;6.20;3.72;;;;;;;;;;10276815;28;20529;-60
2021/05/30 21:51:05;;;;;;;4.60;4.20;;;;;;;;;;10276684;28;20509;-59
2021/05/30 21:56:03;;;;;;;5.78;3.85;;;;;;;;;;10276611;28;20052;-60
2021/05/30 22:01:01;;;;;;;4.22;3.83;;;;;;;;;;10276331;28;20045;-59
2021/05/30 22:06:01;;;;;;;5.05;4.55;;;;;;;;;;10276549;28;20045;-59
2021/05/30 22:11:00;;;;;;;4.80;4.40;;;;;;;;;;10276161;28;20072;-60
2021/05/30 22:15:59;;;;;;;4.80;4.32;;;;;;;;;;10276325;28;20044;-59
2021/05/30 22:20:57;;;;;;;5.80;3.88;;;;;;;;;;10276081;28;20081;-59
2021/05/30 22:25:55;;;;;;;9.75;4.30;;;;;;;;;;10275908;28;20505;-59
2021/05/30 22:30:54;;;;;;;4.28;3.88;;;;;;;;;;10275801;28;20080;-59
2021/05/30 22:35:52;;;;;;;5.03;4.15;;;;;;;;;;10283216;28;20049;-60
2021/05/30 22:40:50;;;;;;;4.53;4.10;;;;;;;;;;10283999;28;20052;-59
2021/05/30 22:45:47;;;;;;;5.28;4.78;;;;;;;;;;10283656;28;20418;-60
2021/05/30 22:50:46;;;;;;;5.95;4.43;;;;;;;;;;10282307;28;20072;-60
2021/05/30 22:55:44;;;;;;;7.00;5.38;;;;;;;;;;10283180;28;20053;-59
2021/05/30 23:00:44;;;;;;;5.97;5.40;;;;;;;;;;10282961;28;20052;-59
2021/05/30 23:05:42;;;;;;;5.05;4.45;;;;;;;;;;10282703;28;20064;-58
2021/05/30 23:10:45;;;;;;;4.80;3.92;;;;;;;;;;10282605;28;20516;-59
2021/05/30 23:15:43;;;;;;;5.68;4.13;;;;;;;;;;10282494;28;20041;-58
2021/05/30 23:20:41;;;;;;;5.30;4.45;;;;;;;;;;10282436;28;20099;-59
2021/05/30 23:25:39;;;;;;;4.78;4.28;;;;;;;;;;10282070;28;20175;-58
2021/05/30 23:30:38;;;;;;;7.82;5.10;;;;;;;;;;10281826;28;20084;-59
2021/05/30 23:35:36;;;;;;;6.32;5.00;;;;;;;;;;10281663;28;20048;-60
2021/05/30 23:40:34;;;;;;;4.53;4.10;;;;;;;;;;10280409;28;20080;-59
2021/05/30 23:45:32;;;;;;;4.85;4.35;;;;;;;;;;10281145;28;20380;-60
2021/05/30 23:50:31;;;;;;;5.20;4.47;;;;;;;;;;10281253;28;20084;-58
2021/05/30 23:55:29;;;;;;;4.80;4.40;;;;;;;;;;10280838;28;20064;-59
